Time;durP1;ratioP1;P1;durP2;ratioP2;P2;SDS_P1;SDS_P2;PMS_P1;PMS_P2;Temp;Humidity;BMP_temperature;BMP_pressure;BME280_temperature;BME280_humidity;BME280_pressure;Samples;Min_cycle;Max_cycle;Signal;HPM_P1;HPM_P2
2022/07/11 00:00:23;;;;;;;2.70;1.45;;;12.50;1.00;;;;;;4999831;28;20049;-90
2022/07/11 00:03:11;;;;;;;3.05;1.50;;;12.50;99.90;;;;;;5017065;28;20136;-89
2022/07/11 00:06:01;;;;;;;3.75;1.65;;;12.60;99.90;;;;;;5017602;28;20056;-90
2022/07/11 00:08:51;;;;;;;2.60;1.60;;;12.60;99.90;;;;;;5017444;28;20423;-89
2022/07/11 00:11:38;;;;;;;4.10;1.60;;;12.70;1.00;;;;;;5026038;28;20056;-90
2022/07/11 00:14:28;;;;;;;3.75;1.58;;;12.70;1.00;;;;;;5008583;28;20061;-89
2022/07/11 00:17:15;;;;;;;3.40;1.48;;;12.80;1.00;;;;;;5017338;28;20069;-89
2022/07/11 00:20:03;;;;;;;3.00;1.40;;;12.80;1.00;;;;;;4991053;28;20154;-88
2022/07/11 00:22:50;;;;;;;3.17;1.65;;;12.80;99.90;;;;;;5016533;28;20115;-88
2022/07/11 00:25:38;;;;;;;5.72;1.52;;;12.80;1.00;;;;;;5006572;28;20148;-88
2022/07/11 00:28:25;;;;;;;3.25;1.65;;;12.70;1.00;;;;;;5005415;28;20050;-90
2022/07/11 00:31:12;;;;;;;2.50;1.65;;;12.70;8.10;;;;;;5006831;28;20081;-90
2022/07/11 00:33:59;;;;;;;2.95;1.52;;;12.60;99.90;;;;;;5002492;28;20116;-89
2022/07/11 00:36:47;;;;;;;3.13;1.50;;;12.50;99.90;;;;;;5026104;28;20046;-89
2022/07/11 00:39:34;;;;;;;2.60;1.55;;;12.40;99.90;;;;;;4996846;28;20049;-90
2022/07/11 00:42:21;;;;;;;3.17;1.83;;;12.40;99.90;;;;;;5026880;28;20253;-90
2022/07/11 00:45:09;;;;;;;3.95;1.65;;;12.40;11.10;;;;;;5020843;28;20049;-89
2022/07/11 00:47:58;;;;;;;5.20;1.90;;;12.40;1.00;;;;;;5038869;28;20046;-90
2022/07/11 00:50:46;;;;;;;3.70;1.70;;;12.40;99.90;;;;;;5013279;28;20061;-90
2022/07/11 00:53:35;;;;;;;4.55;1.85;;;12.50;99.90;;;;;;5022426;28;20105;-89
2022/07/11 00:56:25;;;;;;;5.93;1.60;;;12.60;10.10;;;;;;5012264;28;20042;-89
2022/07/11 00:59:13;;;;;;;2.67;1.33;;;12.70;99.90;;;;;;4988958;28;20050;-90
2022/07/11 01:02:01;;;;;;;7.75;1.80;;;12.80;99.90;;;;;;5014029;28;20047;-90
2022/07/11 01:04:48;;;;;;;7.40;1.95;;;12.80;99.90;;;;;;5011204;28;20050;-89
2022/07/11 01:07:39;;;;;;;2.63;1.58;;;12.80;99.90;;;;;;5001446;28;20436;-91
2022/07/11 01:10:27;;;;;;;1.58;1.40;;;12.80;99.90;;;;;;4995285;28;20073;-92
2022/07/11 01:13:14;;;;;;;7.68;1.85;;;12.80;99.90;;;;;;5007749;28;20057;-91
2022/07/11 01:16:09;;;;;;;5.30;1.75;;;12.80;99.90;;;;;;5021432;28;20159;-91
2022/07/11 01:18:56;;;;;;;4.18;1.90;;;12.90;99.90;;;;;;5018004;28;20033;-88
2022/07/11 01:21:52;;;;;;;2.42;1.60;;;12.90;99.90;;;;;;5002662;28;20146;-89
2022/07/11 01:24:40;;;;;;;4.22;1.80;;;12.90;99.90;;;;;;5004043;28;20050;-89
2022/07/11 01:27:31;;;;;;;5.68;1.90;;;13.00;99.90;;;;;;5006996;28;20050;-89
2022/07/11 01:30:18;;;;;;;4.55;1.80;;;13.00;99.90;;;;;;5003548;28;20057;-89
2022/07/11 01:33:05;;;;;;;2.85;1.85;;;13.00;99.90;;;;;;5006048;28;20034;-89
2022/07/11 01:35:54;;;;;;;3.50;2.00;;;13.00;99.90;;;;;;4982957;28;20057;-89
2022/07/11 01:38:42;;;;;;;2.10;1.90;;;13.00;99.90;;;;;;5015487;28;20431;-89
2022/07/11 01:41:29;;;;;;;2.25;2.03;;;13.00;99.90;;;;;;5014643;28;20188;-89
2022/07/11 01:44:16;;;;;;;3.28;2.22;;;13.10;99.90;;;;;;5006685;28;20133;-90
2022/07/11 01:47:05;;;;;;;2.33;1.70;;;13.10;99.90;;;;;;5001228;28;20065;-88
2022/07/11 01:49:57;;;;;;;6.85;1.92;;;13.00;1.00;;;;;;5015418;28;20049;-88
2022/07/11 01:52:44;;;;;;;4.20;2.22;;;13.00;99.90;;;;;;5014362;28;20129;-89
2022/07/11 01:55:31;;;;;;;3.08;2.03;;;13.00;99.90;;;;;;5020037;28;20046;-89
2022/07/11 01:58:38;;;;;;;3.53;2.47;;;12.90;1.00;;;;;;5017690;28;20052;-89
2022/07/11 02:01:26;;;;;;;4.63;2.90;;;12.90;99.90;;;;;;5007669;28;20093;-89
2022/07/11 02:04:16;;;;;;;4.38;2.50;;;12.90;11.70;;;;;;5015707;28;20324;-90
2022/07/11 02:07:04;;;;;;;6.72;2.72;;;12.90;99.90;;;;;;5015831;28;20049;-89
2022/07/11 02:09:53;;;;;;;6.15;2.83;;;12.90;99.90;;;;;;5008605;28;20105;-87
2022/07/11 02:12:40;;;;;;;5.03;2.63;;;12.90;99.90;;;;;;5022118;28;20053;-90
2022/07/11 02:15:29;;;;;;;4.65;2.88;;;12.90;1.00;;;;;;5011179;28;20093;-90
2022/07/11 02:18:18;;;;;;;4.35;2.55;;;12.90;99.90;;;;;;5013246;28;20160;-89
2022/07/11 02:21:05;;;;;;;4.50;2.60;;;12.90;99.90;;;;;;5023902;28;20471;-89
2022/07/11 02:23:54;;;;;;;2.53;2.30;;;12.90;1.00;;;;;;5002517;28;20046;-89
2022/07/11 02:26:43;;;;;;;4.13;2.70;;;12.90;99.90;;;;;;5009319;28;20098;-89
2022/07/11 02:29:31;;;;;;;3.63;2.47;;;12.90;99.90;;;;;;5001891;28;20136;-89
2022/07/11 02:32:18;;;;;;;6.00;2.25;;;12.80;1.00;;;;;;5014678;28;20037;-89
2022/07/11 02:35:08;;;;;;;3.97;2.70;;;12.80;99.90;;;;;;5004020;28;20053;-90
2022/07/11 02:37:55;;;;;;;2.58;2.28;;;12.80;99.90;;;;;;5020335;28;20061;-90
2022/07/11 02:40:44;;;;;;;3.92;3.03;;;12.70;2.60;;;;;;5027554;28;20401;-89
2022/07/11 02:43:32;;;;;;;4.32;2.38;;;12.70;99.90;;;;;;5021596;28;20351;-89
2022/07/11 02:46:24;;;;;;;4.70;2.72;;;12.70;99.90;;;;;;5009931;28;20105;-88
2022/07/11 02:49:13;;;;;;;4.05;2.58;;;12.80;99.90;;;;;;5032448;28;20046;-89
2022/07/11 02:52:03;;;;;;;3.45;2.75;;;12.80;99.90;;;;;;5003091;28;20053;-89
2022/07/11 02:54:50;;;;;;;3.33;2.35;;;12.80;1.00;;;;;;5012513;28;20356;-88
2022/07/11 02:57:40;;;;;;;3.70;2.60;;;12.80;99.90;;;;;;5021066;28;20045;-88
2022/07/11 03:00:29;;;;;;;2.90;2.40;;;12.90;99.90;;;;;;4996206;28;20068;-89
2022/07/11 03:03:17;;;;;;;3.55;2.78;;;12.80;1.00;;;;;;5041153;28;20058;-90
2022/07/11 03:06:09;;;;;;;5.55;3.10;;;12.90;99.90;;;;;;5029407;28;20105;-88
2022/07/11 03:08:57;;;;;;;3.13;2.83;;;12.90;99.90;;;;;;5034733;28;20057;-90
2022/07/11 03:11:44;;;;;;;4.00;2.72;;;12.90;99.90;;;;;;5018336;28;20491;-89
2022/07/11 03:14:34;;;;;;;6.10;3.28;;;12.90;99.90;;;;;;5031145;28;20077;-90
2022/07/11 03:17:24;;;;;;;4.80;3.08;;;12.90;1.00;;;;;;5025617;28;20073;-89
2022/07/11 03:20:14;;;;;;;4.22;2.72;;;12.80;99.90;;;;;;5011237;28;20077;-91
2022/07/11 03:23:01;;;;;;;4.18;3.22;;;12.80;1.00;;;;;;4999045;28;20054;-89
2022/07/11 03:25:48;;;;;;;6.93;3.53;;;12.90;1.00;;;;;;5001920;28;20117;-90
2022/07/11 03:28:36;;;;;;;3.10;2.83;;;12.80;25.50;;;;;;5016446;28;20085;-90
2022/07/11 03:31:24;;;;;;;5.20;3.22;;;12.90;99.90;;;;;;5021231;28;20496;-89
2022/07/11 03:34:11;;;;;;;3.90;3.00;;;12.90;99.90;;;;;;5003155;28;20186;-89
2022/07/11 03:37:02;;;;;;;4.88;3.05;;;12.80;1.00;;;;;;5015960;28;20049;-89
2022/07/11 03:39:49;;;;;;;5.65;3.33;;;12.80;1.00;;;;;;5018504;28;20053;-90
2022/07/11 03:42:36;;;;;;;9.50;3.13;;;12.80;1.00;;;;;;5002137;28;20086;-90
2022/07/11 03:45:27;;;;;;;4.63;3.22;;;12.80;1.00;;;;;;5011009;28;20062;-89
2022/07/11 03:48:14;;;;;;;5.75;3.00;;;12.70;1.00;;;;;;5003156;28;20041;-90
2022/07/11 03:51:02;;;;;;;6.63;3.60;;;12.70;1.00;;;;;;5019394;28;20049;-90
2022/07/11 03:53:51;;;;;;;3.67;3.10;;;12.70;1.00;;;;;;5024172;28;20172;-90
2022/07/11 03:56:38;;;;;;;3.40;3.05;;;12.70;99.90;;;;;;5002298;28;20054;-89
2022/07/11 03:59:28;;;;;;;3.35;3.03;;;12.70;1.00;;;;;;5017229;28;20132;-90
2022/07/11 04:02:16;;;;;;;6.38;3.33;;;12.60;1.00;;;;;;5000902;28;20069;-88
2022/07/11 04:05:04;;;;;;;4.45;3.08;;;12.70;1.00;;;;;;5007143;28;20050;-89
2022/07/11 04:07:51;;;;;;;5.15;3.35;;;12.70;1.00;;;;;;4990946;28;20079;-90
2022/07/11 04:10:41;;;;;;;5.55;3.58;;;12.70;99.90;;;;;;4996609;28;20073;-90
2022/07/11 04:13:30;;;;;;;8.52;3.90;;;12.70;99.90;;;;;;5018180;28;20046;-90
2022/07/11 04:16:17;;;;;;;5.68;3.20;;;12.80;99.90;;;;;;5000245;28;20035;-90
2022/07/11 04:19:05;;;;;;;5.82;3.10;;;12.90;99.90;;;;;;5006024;28;20374;-90
2022/07/11 04:21:52;;;;;;;5.63;3.58;;;12.90;99.90;;;;;;5017086;28;20196;-90
2022/07/11 04:24:39;;;;;;;8.27;3.78;;;13.00;76.10;;;;;;5003027;28;20114;-88
2022/07/11 04:27:27;;;;;;;5.55;3.80;;;13.00;1.00;;;;;;5032447;28;20112;-89
2022/07/11 04:30:17;;;;;;;6.20;3.00;;;13.10;1.00;;;;;;5004458;28;20061;-88
2022/07/11 04:33:04;;;;;;;4.45;3.50;;;13.20;99.90;;;;;;5013193;28;20439;-88
2022/07/11 04:35:57;;;;;;;7.28;3.28;;;13.30;1.00;;;;;;5018446;28;20056;-89
2022/07/11 04:38:44;;;;;;;4.07;3.22;;;13.40;99.90;;;;;;4987604;28;20069;-88
2022/07/11 04:41:32;;;;;;;7.25;3.08;;;13.40;99.90;;;;;;5015934;28;20070;-89
2022/07/11 04:44:22;;;;;;;5.38;3.35;;;13.50;99.90;;;;;;5014636;28;20057;-89
2022/07/11 04:47:10;;;;;;;6.35;3.17;;;13.60;1.00;;;;;;5016714;28;20128;-89
2022/07/11 04:49:57;;;;;;;4.70;3.60;;;13.50;47.10;;;;;;5000059;28;20049;-90
2022/07/11 04:52:44;;;;;;;5.95;3.85;;;13.50;99.90;;;;;;5016018;28;20072;-89
2022/07/11 04:55:31;;;;;;;3.60;3.03;;;13.50;1.00;;;;;;5026224;28;20116;-90
2022/07/11 04:58:19;;;;;;;8.52;4.00;;;13.50;1.00;;;;;;5015711;28;20060;-90
2022/07/11 05:01:08;;;;;;;7.65;4.00;;;13.60;1.00;;;;;;5010477;28;20046;-89
2022/07/11 05:03:56;;;;;;;3.75;3.33;;;13.60;1.00;;;;;;5017182;28;20042;-89
2022/07/11 05:06:43;;;;;;;5.07;3.47;;;13.60;1.00;;;;;;5001528;28;20156;-88
2022/07/11 05:09:31;;;;;;;6.85;3.50;;;13.70;99.90;;;;;;5030529;28;20046;-89
2022/07/11 05:12:20;;;;;;;6.82;4.05;;;13.80;1.00;;;;;;5003954;28;20061;-88
2022/07/11 05:15:08;;;;;;;5.25;3.83;;;14.00;99.90;;;;;;5010586;28;20042;-89
2022/07/11 05:17:55;;;;;;;6.07;4.18;;;14.10;1.00;;;;;;5016913;28;20041;-88
2022/07/11 05:20:45;;;;;;;6.68;3.78;;;14.10;1.00;;;;;;5006810;28;20046;-88
2022/07/11 05:23:32;;;;;;;5.00;3.90;;;14.10;1.00;;;;;;5006512;28;20053;-89
2022/07/11 05:26:24;;;;;;;6.32;4.00;;;14.30;1.00;;;;;;5010480;28;20050;-88
2022/07/11 05:29:11;;;;;;;5.25;4.05;;;14.30;99.90;;;;;;5016636;28;20045;-88
2022/07/11 05:31:58;;;;;;;5.32;3.85;;;14.40;99.90;;;;;;5019362;28;20140;-89
2022/07/11 05:34:46;;;;;;;5.57;4.25;;;14.60;99.90;;;;;;5018483;28;20050;-88
2022/07/11 05:37:33;;;;;;;4.90;4.10;;;14.70;99.90;;;;;;5015505;28;20050;-88
2022/07/11 05:49:21;;;;;;;7.97;4.47;;;15.20;65.50;;;;;;4943672;29;20125;-91
2022/07/11 05:52:09;;;;;;;4.40;3.72;;;15.50;1.00;;;;;;4966804;28;20047;-91
2022/07/11 05:54:56;;;;;;;6.70;5.13;;;15.90;99.90;;;;;;5017659;28;20411;-91
2022/07/11 05:57:43;;;;;;;8.07;5.10;;;16.10;99.90;;;;;;5007689;28;20424;-90
2022/07/11 06:00:30;;;;;;;7.05;4.57;;;16.30;31.40;;;;;;5011392;28;20079;-91
2022/07/11 06:03:20;;;;;;;6.00;4.55;;;16.50;1.00;;;;;;5009495;28;20048;-91
2022/07/11 06:06:07;;;;;;;5.07;4.57;;;16.50;99.90;;;;;;5012725;28;20061;-91
2022/07/11 06:08:57;;;;;;;8.18;4.18;;;16.60;99.90;;;;;;5012555;28;20401;-92
2022/07/11 06:11:44;;;;;;;6.50;3.72;;;16.80;99.90;;;;;;5011872;28;20057;-91
2022/07/11 06:14:31;;;;;;;6.18;4.43;;;17.00;1.00;;;;;;5013684;28;20046;-91
2022/07/11 06:17:18;;;;;;;6.32;4.43;;;17.00;1.00;;;;;;4995653;28;20106;-91
2022/07/11 06:20:06;;;;;;;4.53;3.80;;;17.10;1.00;;;;;;5011987;28;20061;-92
2022/07/11 06:22:54;;;;;;;4.35;3.70;;;17.20;99.90;;;;;;5011910;28;20073;-91
2022/07/11 06:25:41;;;;;;;5.13;3.65;;;17.20;99.90;;;;;;5005466;28;20042;-90
2022/07/11 06:28:29;;;;;;;4.80;3.80;;;17.30;99.90;;;;;;5013762;28;20046;-89
2022/07/11 06:31:16;;;;;;;4.55;3.53;;;17.20;99.90;;;;;;5029633;28;20042;-88
2022/07/11 06:34:04;;;;;;;4.03;2.80;;;17.20;99.90;;;;;;5012068;28;20046;-88
2022/07/11 06:36:52;;;;;;;3.55;3.15;;;17.40;48.70;;;;;;5015724;28;20042;-89
2022/07/11 06:39:39;;;;;;;5.03;3.33;;;17.50;1.00;;;;;;5012252;28;20090;-88
2022/07/11 06:42:26;;;;;;;6.85;3.05;;;17.40;1.00;;;;;;4998603;28;20046;-89
2022/07/11 06:45:14;;;;;;;3.45;3.13;;;17.20;99.90;;;;;;5016643;28;20464;-88
2022/07/11 06:48:01;;;;;;;3.58;3.08;;;17.00;1.00;;;;;;5015106;28;20061;-88
2022/07/11 06:50:51;;;;;;;6.22;2.90;;;17.30;1.00;;;;;;5012408;28;20053;-89
2022/07/11 06:53:39;;;;;;;4.32;2.65;;;17.70;1.00;;;;;;5016714;28;20053;-87
2022/07/11 06:56:29;;;;;;;6.10;2.90;;;18.00;1.00;;;;;;5019353;28;20121;-88
2022/07/11 06:59:18;;;;;;;3.92;3.00;;;18.30;99.90;;;;;;5022571;28;20050;-88
2022/07/11 07:02:06;;;;;;;4.82;2.70;;;18.70;99.90;;;;;;5020342;28;20042;-89
2022/07/11 07:04:55;;;;;;;3.83;2.80;;;19.00;54.30;;;;;;5022224;28;20081;-89
2022/07/11 07:07:45;;;;;;;2.25;2.00;;;19.10;49.20;;;;;;5013406;28;20053;-89
2022/07/11 07:10:32;;;;;;;4.32;2.45;;;19.30;1.00;;;;;;5014852;28;20049;-88
2022/07/11 07:13:25;;;;;;;3.33;2.60;;;19.70;1.00;;;;;;5006047;28;20476;-88
2022/07/11 07:16:12;;;;;;;2.95;1.80;;;19.40;1.00;;;;;;5007061;28;20035;-88
2022/07/11 07:19:02;;;;;;;5.65;2.10;;;19.70;1.00;;;;;;5005573;28;20042;-88
2022/07/11 07:21:49;;;;;;;3.15;2.30;;;19.90;1.00;;;;;;5005215;28;20038;-88
2022/07/11 07:24:37;;;;;;;5.53;2.65;;;19.90;1.00;;;;;;5011477;28;20108;-88
2022/07/11 07:27:26;;;;;;;7.07;2.45;;;19.80;99.90;;;;;;5009015;28;20046;-88
2022/07/11 07:30:16;;;;;;;4.75;2.38;;;19.70;1.00;;;;;;5002968;28;20041;-87
2022/07/11 07:33:03;;;;;;;2.40;2.00;;;20.10;1.00;;;;;;5011894;28;20042;-87
2022/07/11 07:35:51;;;;;;;3.40;2.20;;;20.50;99.90;;;;;;5010664;28;20057;-86
2022/07/11 07:38:47;;;;;;;4.20;2.20;;;20.60;99.90;;;;;;5020374;28;20056;-86
2022/07/11 07:41:34;;;;;;;5.20;2.30;;;20.90;99.90;;;;;;5009287;28;20052;-89
2022/07/11 07:44:21;;;;;;;6.15;2.08;;;20.90;99.90;;;;;;5010726;28;20076;-87
2022/07/11 07:47:09;;;;;;;4.38;2.17;;;21.00;99.90;;;;;;5023760;28;20052;-88
2022/07/11 07:49:56;;;;;;;4.47;1.70;;;21.00;99.90;;;;;;5018644;28;20072;-87
2022/07/11 07:52:43;;;;;;;3.67;1.50;;;20.80;99.90;;;;;;5025502;28;20045;-87
2022/07/11 07:55:34;;;;;;;2.67;1.40;;;20.80;99.90;;;;;;5010171;28;20065;-86
2022/07/11 07:58:22;;;;;;;3.20;1.50;;;20.90;99.90;;;;;;5023971;28;20093;-85
2022/07/11 08:04:18;;;;;;;2.33;1.30;;;21.50;99.90;;;;;;5013300;28;20041;-87
2022/07/11 08:07:07;;;;;;;1.92;0.98;;;22.40;99.90;;;;;;5012907;28;20109;-90
2022/07/11 08:09:54;;;;;;;2.67;0.80;;;23.30;99.90;;;;;;5003506;28;20447;-88
2022/07/11 08:12:44;;;;;;;3.85;0.95;;;24.00;99.90;;;;;;5017467;28;20061;-88
2022/07/11 08:15:33;;;;;;;4.10;1.75;;;23.80;88.90;;;;;;5008729;28;20042;-88
2022/07/11 08:18:20;;;;;;;1.80;1.45;;;22.80;28.40;;;;;;5010663;28;20332;-87
2022/07/11 08:21:09;;;;;;;1.38;0.70;;;22.50;1.00;;;;;;5002546;28;20041;-87
2022/07/11 08:24:01;;;;;;;1.67;0.40;;;22.20;1.00;;;;;;5018272;28;20057;-87
2022/07/11 08:26:49;;;;;;;0.70;0.55;;;22.00;1.00;;;;;;4993721;28;20046;-87
2022/07/11 08:29:38;;;;;;;1.52;0.52;;;21.80;98.30;;;;;;5016904;28;20046;-86
2022/07/11 08:32:28;;;;;;;0.50;0.50;;;21.90;13.30;;;;;;5015379;28;20045;-88
2022/07/11 08:35:15;;;;;;;0.55;0.55;;;22.30;99.90;;;;;;4993147;28;20103;-88
2022/07/11 08:38:03;;;;;;;0.55;0.55;;;22.10;84.10;;;;;;5002432;28;20056;-88
2022/07/11 08:40:51;;;;;;;0.75;0.70;;;22.00;56.50;;;;;;5010862;28;20360;-88
2022/07/11 08:43:41;;;;;;;0.70;0.70;;;22.30;99.90;;;;;;5007952;28;20109;-87
2022/07/11 08:46:29;;;;;;;1.40;0.80;;;22.40;17.00;;;;;;5015289;28;20052;-88
2022/07/11 08:49:17;;;;;;;0.52;0.43;;;22.60;83.10;;;;;;5016702;28;20041;-88
2022/07/11 08:52:07;;;;;;;1.35;0.70;;;22.90;78.50;;;;;;5013237;28;20242;-87
2022/07/11 08:54:59;;;;;;;0.70;0.70;;;22.70;99.90;;;;;;5013197;28;20042;-88
2022/07/11 08:57:48;;;;;;;0.75;0.70;;;22.90;99.90;;;;;;5011245;28;20148;-90
2022/07/11 09:00:38;;;;;;;1.23;0.40;;;22.70;99.90;;;;;;5017515;28;20160;-87
2022/07/11 09:03:29;;;;;;;0.70;0.63;;;22.60;31.90;;;;;;4997773;28;20054;-88
2022/07/11 09:06:16;;;;;;;0.50;0.40;;;23.20;83.50;;;;;;5012908;28;20125;-88
2022/07/11 09:09:04;;;;;;;1.08;0.63;;;23.80;92.30;;;;;;5006356;28;20397;-86
2022/07/11 09:11:57;;;;;;;0.60;0.60;;;23.40;84.70;;;;;;5015930;28;20052;-87
2022/07/11 09:14:48;;;;;;;1.60;0.50;;;22.90;1.00;;;;;;5016411;28;20045;-87
2022/07/11 09:17:36;;;;;;;0.82;0.70;;;22.70;6.80;;;;;;5017016;28;20042;-87
2022/07/11 09:20:24;;;;;;;1.92;0.82;;;23.30;21.00;;;;;;5013191;28;20486;-87
2022/07/11 09:26:30;;;;;;;0.50;0.50;;;24.80;16.80;;;;;;5007601;28;20046;-88
2022/07/11 09:29:20;;;;;;;0.88;0.40;;;26.20;59.80;;;;;;5005144;28;20148;-87
2022/07/11 09:32:08;;;;;;;1.45;0.50;;;27.00;39.60;;;;;;5015674;28;20038;-88
2022/07/11 09:35:05;;;;;;;0.77;0.47;;;26.70;46.00;;;;;;4994110;28;20060;-86
2022/07/11 09:37:53;;;;;;;0.75;0.47;;;25.50;97.20;;;;;;5013702;28;20046;-87
2022/07/11 09:40:44;;;;;;;0.40;0.40;;;25.90;1.00;;;;;;5013292;28;20042;-87
2022/07/11 09:43:31;;;;;;;1.15;0.73;;;26.50;99.90;;;;;;5008561;28;20090;-87
2022/07/11 09:46:24;;;;;;;1.85;0.32;;;27.00;99.90;;;;;;4997292;28;20033;-87
2022/07/11 09:49:12;;;;;;;0.43;0.40;;;27.80;99.90;;;;;;5012473;28;20049;-87
2022/07/11 09:52:18;;;;;;;0.30;0.30;;;27.50;99.90;;;;;;4996721;28;20165;-87
2022/07/11 09:55:10;;;;;;;0.60;0.50;;;26.00;89.30;;;;;;5015095;28;20470;-87
2022/07/11 09:58:21;;;;;;;1.03;0.60;;;25.30;83.10;;;;;;5020507;28;20180;-87
2022/07/11 10:01:11;;;;;;;0.65;0.65;;;24.70;80.80;;;;;;5000609;28;20320;-88
2022/07/11 10:04:02;;;;;;;0.52;0.45;;;24.80;86.00;;;;;;5010406;28;20056;-88
2022/07/11 10:06:51;;;;;;;0.88;0.50;;;24.60;82.90;;;;;;4988110;28;20069;-87
2022/07/11 10:09:39;;;;;;;1.13;0.60;;;24.60;99.90;;;;;;4994409;28;20049;-88
2022/07/11 10:12:27;;;;;;;4.38;0.60;;;24.90;47.00;;;;;;5016039;28;20061;-88
2022/07/11 10:15:18;;;;;;;0.63;0.52;;;25.20;45.70;;;;;;5014324;28;20046;-88
2022/07/11 10:18:35;;;;;;;0.53;0.47;;;25.50;54.50;;;;;;5009468;28;20414;-87
2022/07/11 10:21:43;;;;;;;0.55;0.55;;;25.30;1.00;;;;;;5001087;28;20117;-88
2022/07/11 10:24:42;;;;;;;0.63;0.50;;;24.90;2.30;;;;;;5000241;28;20096;-87
2022/07/11 10:28:02;;;;;;;0.60;0.60;;;24.50;2.60;;;;;;5007142;28;20187;-89
2022/07/11 10:31:00;;;;;;;2.17;0.60;;;24.20;1.00;;;;;;5013971;28;20089;-87
2022/07/11 10:34:18;;;;;;;1.92;0.65;;;23.80;1.00;;;;;;5012049;28;20041;-88
2022/07/11 10:37:12;;;;;;;1.85;0.60;;;24.10;1.00;;;;;;4999918;28;20078;-88
2022/07/11 10:39:59;;;;;;;0.68;0.60;;;24.40;1.00;;;;;;5008607;28;20060;-88
2022/07/11 10:42:46;;;;;;;0.60;0.60;;;24.20;1.00;;;;;;4996129;28;20133;-87
2022/07/11 10:46:00;;;;;;;0.57;0.55;;;23.90;1.00;;;;;;5011795;28;20049;-87
2022/07/11 10:49:10;;;;;;;0.70;0.35;;;23.90;1.00;;;;;;5004102;28;20049;-88
2022/07/11 10:52:07;;;;;;;2.90;0.60;;;25.20;1.00;;;;;;5011776;28;20045;-89
2022/07/11 10:55:29;;;;;;;;;;;25.90;1.00;;;;;;5034427;28;20046;-87
2022/07/11 10:58:29;;;;;;;0.77;0.50;;;26.30;5.80;;;;;;5015227;28;19948;-87
2022/07/11 11:01:17;;;;;;;1.88;0.60;;;26.60;1.00;;;;;;5010054;28;20042;-86
2022/07/11 11:04:41;;;;;;;0.88;0.55;;;26.60;91.10;;;;;;5007229;28;20041;-84
2022/07/11 11:07:35;;;;;;;0.45;0.45;;;26.50;1.00;;;;;;5031867;28;20065;-85
2022/07/11 11:10:38;;;;;;;3.42;0.73;;;25.90;52.50;;;;;;5050147;28;20056;-84
2022/07/11 11:13:26;;;;;;;0.60;0.60;;;25.20;36.00;;;;;;5021542;28;20041;-85
2022/07/11 11:16:22;;;;;;;0.60;0.60;;;25.50;56.50;;;;;;5022003;28;20110;-86
2022/07/11 11:19:47;;;;;;;0.55;0.55;;;25.60;14.50;;;;;;5023158;28;20161;-87
2022/07/11 11:22:38;;;;;;;1.38;0.50;;;25.50;1.00;;;;;;5030122;28;20046;-87
2022/07/11 11:25:27;;;;;;;0.57;0.55;;;25.20;1.00;;;;;;5033061;28;20050;-88
2022/07/11 11:28:20;;;;;;;0.90;0.60;;;24.70;1.00;;;;;;5027285;28;20046;-87
2022/07/11 11:31:08;;;;;;;1.40;0.55;;;25.00;1.00;;;;;;5017070;28;20136;-87
2022/07/11 11:34:01;;;;;;;1.17;0.60;;;25.70;1.00;;;;;;5006982;28;20056;-88
2022/07/11 11:37:07;;;;;;;0.52;0.50;;;25.40;1.00;;;;;;5020698;28;20101;-89
2022/07/11 11:39:59;;;;;;;2.30;0.70;;;25.00;1.00;;;;;;5018037;28;20053;-89
2022/07/11 11:42:49;;;;;;;0.90;0.70;;;24.90;1.00;;;;;;5014776;28;20049;-86
2022/07/11 11:45:41;;;;;;;1.00;0.73;;;24.80;12.00;;;;;;5022943;28;20049;-88
2022/07/11 11:48:33;;;;;;;2.60;0.68;;;24.90;1.00;;;;;;5022582;28;20045;-86
2022/07/11 11:51:28;;;;;;;0.70;0.70;;;25.30;1.00;;;;;;5012636;28;20060;-88
2022/07/11 11:54:25;;;;;;;1.30;0.52;;;26.00;1.00;;;;;;5013694;28;20454;-88
2022/07/11 11:57:12;;;;;;;1.55;0.60;;;26.80;1.00;;;;;;5008699;28;20038;-89
2022/07/11 11:59:59;;;;;;;0.65;0.50;;;27.20;1.00;;;;;;5017148;28;20045;-89
2022/07/11 12:02:47;;;;;;;0.82;0.47;;;27.00;1.00;;;;;;5014899;28;20065;-88
2022/07/11 12:05:34;;;;;;;3.35;0.68;;;27.40;1.00;;;;;;5000339;28;20487;-86
2022/07/11 12:08:31;;;;;;;0.50;0.50;;;27.40;1.00;;;;;;5019654;28;20109;-86
2022/07/11 12:11:20;;;;;;;0.73;0.73;;;27.30;1.00;;;;;;5018184;28;20084;-88
2022/07/11 12:14:10;;;;;;;1.30;0.65;;;28.60;99.90;;;;;;5019377;28;20046;-88
2022/07/11 12:16:57;;;;;;;2.08;0.50;;;29.30;5.80;;;;;;5009026;28;20145;-87
2022/07/11 12:19:44;;;;;;;1.30;0.65;;;28.40;33.20;;;;;;5009210;28;20052;-88
2022/07/11 12:22:42;;;;;;;3.88;0.68;;;27.80;1.00;;;;;;5013836;28;20081;-88
2022/07/11 12:25:29;;;;;;;0.65;0.63;;;27.20;1.00;;;;;;5008316;28;20443;-87
2022/07/11 12:28:17;;;;;;;1.25;0.63;;;27.00;1.90;;;;;;5015947;28;20042;-87
2022/07/11 12:31:05;;;;;;;0.60;0.57;;;26.80;1.00;;;;;;5022965;28;20173;-87
2022/07/11 12:33:53;;;;;;;0.60;0.60;;;27.70;1.00;;;;;;5026229;28;20430;-86
2022/07/11 12:36:41;;;;;;;0.73;0.50;;;29.70;1.00;;;;;;5023446;28;20149;-88
2022/07/11 12:39:31;;;;;;;1.42;0.43;;;30.40;1.00;;;;;;5018737;28;20138;-86
2022/07/11 12:42:26;;;;;;;1.55;0.60;;;30.50;1.00;;;;;;5023868;28;20097;-88
2022/07/11 12:45:17;;;;;;;0.98;0.70;;;28.90;1.00;;;;;;5013926;28;20045;-89
2022/07/11 12:48:04;;;;;;;1.00;0.80;;;27.80;1.00;;;;;;5026442;28;20048;-87
2022/07/11 12:50:52;;;;;;;0.95;0.70;;;27.50;17.20;;;;;;5025817;28;20045;-88
2022/07/11 12:53:39;;;;;;;1.35;0.60;;;27.70;1.00;;;;;;5014870;28;20424;-88
2022/07/11 12:56:27;;;;;;;1.00;0.63;;;27.80;1.00;;;;;;5034576;28;20362;-87
2022/07/11 12:59:22;;;;;;;0.85;0.47;;;28.30;1.00;;;;;;5023739;28;20034;-82
2022/07/11 13:02:11;;;;;;;1.40;0.65;;;28.40;1.00;;;;;;5029505;28;20128;-89
2022/07/11 13:04:59;;;;;;;0.63;0.63;;;27.80;1.00;;;;;;5027198;28;20168;-86
2022/07/11 13:11:00;;;;;;;2.80;0.80;;;29.50;1.00;;;;;;5029601;28;20126;-84
2022/07/11 13:13:56;;;;;;;1.13;0.80;;;29.00;1.00;;;;;;5047584;28;20033;-87
2022/07/11 13:16:43;;;;;;;0.57;0.57;;;28.40;1.00;;;;;;5026432;28;20046;-82
2022/07/11 13:19:33;;;;;;;0.93;0.75;;;28.30;1.00;;;;;;5020319;28;20061;-89
2022/07/11 13:22:23;;;;;;;5.20;0.80;;;27.70;1.00;;;;;;5030769;28;20093;-87
2022/07/11 13:25:12;;;;;;;2.22;0.80;;;27.50;1.00;;;;;;5016432;28;20042;-86
2022/07/11 13:28:02;;;;;;;1.67;0.73;;;27.90;1.00;;;;;;5024372;28;20041;-85
2022/07/11 13:30:50;;;;;;;0.60;0.60;;;28.60;1.00;;;;;;5021534;28;20061;-86
2022/07/11 13:33:57;;;;;;;1.85;0.85;;;28.00;1.00;;;;;;5009740;28;20053;-87
2022/07/11 13:36:48;;;;;;;1.63;0.80;;;27.30;1.00;;;;;;5023782;28;20056;-88
2022/07/11 13:39:38;;;;;;;2.40;1.10;;;26.50;1.00;;;;;;5031541;28;20125;-87
2022/07/11 13:42:26;;;;;;;1.30;1.10;;;26.10;1.00;;;;;;5019672;28;20076;-86
2022/07/11 13:45:14;;;;;;;2.97;1.10;;;25.70;1.00;;;;;;5017141;28;20050;-86
2022/07/11 13:48:04;;;;;;;0.95;0.93;;;25.50;1.00;;;;;;5020709;28;20054;-87
2022/07/11 13:50:55;;;;;;;4.25;1.25;;;25.10;1.00;;;;;;5018711;28;20470;-86
2022/07/11 13:53:42;;;;;;;1.73;1.08;;;25.20;1.00;;;;;;5019445;28;20088;-87
2022/07/11 13:56:29;;;;;;;2.63;1.20;;;25.20;1.00;;;;;;5010804;28;20108;-86
2022/07/11 13:59:20;;;;;;;1.95;1.25;;;24.80;1.00;;;;;;5016369;28;20330;-87
2022/07/11 14:02:07;;;;;;;1.85;1.17;;;24.40;1.00;;;;;;5004499;28;20177;-89
2022/07/11 14:04:58;;;;;;;1.80;1.15;;;23.90;1.00;;;;;;5014347;28;20042;-83
2022/07/11 14:07:48;;;;;;;3.17;1.30;;;23.60;1.00;;;;;;5012426;28;20159;-85
2022/07/11 14:10:39;;;;;;;2.33;1.27;;;23.50;1.00;;;;;;5008226;28;20045;-85
2022/07/11 14:13:28;;;;;;;1.75;1.25;;;23.60;1.00;;;;;;5010643;28;20448;-86
2022/07/11 14:16:18;;;;;;;1.92;1.40;;;23.90;1.00;;;;;;5002747;28;20378;-85
2022/07/11 14:19:13;;;;;;;1.83;1.00;;;24.20;1.00;;;;;;5005317;28;20034;-85
2022/07/11 14:22:01;;;;;;;2.75;1.20;;;26.10;1.00;;;;;;5011628;28;20456;-87
2022/07/11 14:24:49;;;;;;;2.00;1.42;;;27.40;1.00;;;;;;5017592;28;20053;-87
2022/07/11 14:27:37;;;;;;;1.30;1.20;;;27.60;1.00;;;;;;4999364;28;20109;-86
2022/07/11 14:30:24;;;;;;;5.88;1.30;;;27.30;1.00;;;;;;5009744;28;20144;-86
2022/07/11 14:33:11;;;;;;;2.53;1.10;;;27.00;1.00;;;;;;5013549;28;20049;-85
2022/07/11 14:36:01;;;;;;;1.67;1.33;;;26.70;1.00;;;;;;5012360;28;20076;-87
2022/07/11 14:38:49;;;;;;;2.85;1.38;;;26.50;1.00;;;;;;5010137;28;20042;-86
2022/07/11 14:41:36;;;;;;;2.70;1.20;;;26.50;1.00;;;;;;5010062;28;20080;-89
2022/07/11 14:44:24;;;;;;;2.00;1.17;;;26.30;1.00;;;;;;5016117;28;20049;-88
2022/07/11 14:47:11;;;;;;;1.60;1.20;;;26.00;1.00;;;;;;5005849;28;20042;-86
2022/07/11 14:49:58;;;;;;;2.03;1.00;;;25.80;1.00;;;;;;5018391;28;20037;-86
2022/07/11 14:52:46;;;;;;;3.30;1.20;;;25.20;1.00;;;;;;5020063;28;20060;-88
2022/07/11 14:55:34;;;;;;;1.42;1.33;;;25.10;1.00;;;;;;4993958;28;20049;-88
2022/07/11 14:58:24;;;;;;;3.50;1.23;;;24.90;1.00;;;;;;5022814;28;20049;-84
2022/07/11 15:01:12;;;;;;;1.70;1.30;;;24.50;1.00;;;;;;5024421;28;20050;-85
2022/07/11 15:04:03;;;;;;;2.15;1.52;;;24.40;1.00;;;;;;5016938;28;20125;-86
2022/07/11 15:13:18;;;;;;;1.80;1.23;;;23.90;1.00;;;;;;4979062;28;20145;-86
2022/07/11 15:16:06;;;;;;;1.73;1.27;;;24.00;1.00;;;;;;5012203;28;20121;-86